sensor_id;sensor_type;location;lat;lon;timestamp;temperature;humidity
45685;DHT22;46836;48.388;16.210;2022-08-21T00:00:19;19.60;99.90
45685;DHT22;46836;48.388;16.210;2022-08-21T00:02:52;19.60;99.90
45685;DHT22;46836;48.388;16.210;2022-08-21T00:05:21;19.50;99.90
45685;DHT22;46836;48.388;16.210;2022-08-21T00:07:48;19.40;99.90
45685;DHT22;46836;48.388;16.210;2022-08-21T00:10:17;19.40;99.90
45685;DHT22;46836;48.388;16.210;2022-08-21T00:12:45;19.40;99.90
45685;DHT22;46836;48.388;16.210;2022-08-21T00:15:19;19.40;99.90
45685;DHT22;46836;48.388;16.210;2022-08-21T00:17:46;19.40;99.90
45685;DHT22;46836;48.388;16.210;2022-08-21T00:20:15;19.30;99.90
45685;DHT22;46836;48.388;16.210;2022-08-21T00:22:43;19.30;99.90
45685;DHT22;46836;48.388;16.210;2022-08-21T00:25:12;19.30;99.90
45685;DHT22;46836;48.388;16.210;2022-08-21T00:27:40;19.30;99.90
45685;DHT22;46836;48.388;16.210;2022-08-21T00:30:10;19.20;99.90
45685;DHT22;46836;48.388;16.210;2022-08-21T00:32:47;19.20;99.90
45685;DHT22;46836;48.388;16.210;2022-08-21T00:35:17;19.20;99.90
45685;DHT22;46836;48.388;16.210;2022-08-21T00:37:45;19.20;99.90
45685;DHT22;46836;48.388;16.210;2022-08-21T00:40:17;19.20;99.90
45685;DHT22;46836;48.388;16.210;2022-08-21T00:42:45;19.20;99.90
45685;DHT22;46836;48.388;16.210;2022-08-21T00:45:21;19.10;99.90
45685;DHT22;46836;48.388;16.210;2022-08-21T00:47:49;19.10;99.90
45685;DHT22;46836;48.388;16.210;2022-08-21T00:50:17;19.10;99.90
45685;DHT22;46836;48.388;16.210;2022-08-21T00:52:49;19.10;99.90
45685;DHT22;46836;48.388;16.210;2022-08-21T00:55:18;19.10;99.90
45685;DHT22;46836;48.388;16.210;2022-08-21T00:57:52;19.10;99.90
45685;DHT22;46836;48.388;16.210;2022-08-21T01:00:29;19.10;99.90
45685;DHT22;46836;48.388;16.210;2022-08-21T01:02:57;19.10;99.90
45685;DHT22;46836;48.388;16.210;2022-08-21T01:05:26;19.10;99.90
45685;DHT22;46836;48.388;16.210;2022-08-21T01:07:54;19.10;99.90
45685;DHT22;46836;48.388;16.210;2022-08-21T01:10:23;19.10;99.90
45685;DHT22;46836;48.388;16.210;2022-08-21T01:12:52;19.10;99.90
45685;DHT22;46836;48.388;16.210;2022-08-21T01:15:21;19.00;99.90
45685;DHT22;46836;48.388;16.210;2022-08-21T01:17:50;19.10;99.90
45685;DHT22;46836;48.388;16.210;2022-08-21T01:20:17;19.10;99.90
45685;DHT22;46836;48.388;16.210;2022-08-21T01:22:45;19.10;99.90
45685;DHT22;46836;48.388;16.210;2022-08-21T01:25:14;19.10;99.90
45685;DHT22;46836;48.388;16.210;2022-08-21T01:27:42;19.10;99.90
45685;DHT22;46836;48.388;16.210;2022-08-21T01:30:23;19.10;99.90
45685;DHT22;46836;48.388;16.210;2022-08-21T01:32:51;19.10;99.90
45685;DHT22;46836;48.388;16.210;2022-08-21T01:35:19;19.10;99.90
45685;DHT22;46836;48.388;16.210;2022-08-21T01:37:48;19.10;99.90
45685;DHT22;46836;48.388;16.210;2022-08-21T01:40:16;19.00;99.90
45685;DHT22;46836;48.388;16.210;2022-08-21T01:42:45;19.00;99.90
45685;DHT22;46836;48.388;16.210;2022-08-21T01:45:13;18.90;99.90
45685;DHT22;46836;48.388;16.210;2022-08-21T01:47:42;18.90;99.90
45685;DHT22;46836;48.388;16.210;2022-08-21T01:50:12;18.80;99.90
45685;DHT22;46836;48.388;16.210;2022-08-21T01:52:40;18.80;99.90
45685;DHT22;46836;48.388;16.210;2022-08-21T01:55:09;18.70;99.90
45685;DHT22;46836;48.388;16.210;2022-08-21T01:57:37;18.60;99.90
45685;DHT22;46836;48.388;16.210;2022-08-21T02:00:07;18.60;99.90
45685;DHT22;46836;48.388;16.210;2022-08-21T02:02:38;18.60;99.90
45685;DHT22;46836;48.388;16.210;2022-08-21T02:05:08;18.60;99.90
45685;DHT22;46836;48.388;16.210;2022-08-21T02:07:44;18.50;99.90
45685;DHT22;46836;48.388;16.210;2022-08-21T02:10:28;18.60;99.90
45685;DHT22;46836;48.388;16.210;2022-08-21T02:12:56;18.60;99.90
45685;DHT22;46836;48.388;16.210;2022-08-21T02:15:24;18.50;99.90
45685;DHT22;46836;48.388;16.210;2022-08-21T02:17:57;18.50;99.90
45685;DHT22;46836;48.388;16.210;2022-08-21T02:22:56;18.50;99.90
45685;DHT22;46836;48.388;16.210;2022-08-21T02:25:25;18.50;99.90
45685;DHT22;46836;48.388;16.210;2022-08-21T02:27:52;18.40;99.90
45685;DHT22;46836;48.388;16.210;2022-08-21T02:30:27;18.40;99.90
45685;DHT22;46836;48.388;16.210;2022-08-21T02:32:56;18.40;99.90
45685;DHT22;46836;48.388;16.210;2022-08-21T02:35:24;18.40;99.90
45685;DHT22;46836;48.388;16.210;2022-08-21T02:37:55;18.30;99.90
45685;DHT22;46836;48.388;16.210;2022-08-21T02:40:29;18.30;99.90
45685;DHT22;46836;48.388;16.210;2022-08-21T02:42:58;18.30;99.90
45685;DHT22;46836;48.388;16.210;2022-08-21T02:45:26;18.20;99.90
45685;DHT22;46836;48.388;16.210;2022-08-21T02:48:09;18.20;99.90
45685;DHT22;46836;48.388;16.210;2022-08-21T02:50:42;18.20;99.90
45685;DHT22;46836;48.388;16.210;2022-08-21T02:53:12;18.20;99.90
45685;DHT22;46836;48.388;16.210;2022-08-21T02:55:41;18.20;99.90
45685;DHT22;46836;48.388;16.210;2022-08-21T02:58:08;18.20;99.90
45685;DHT22;46836;48.388;16.210;2022-08-21T03:00:36;18.20;99.90
45685;DHT22;46836;48.388;16.210;2022-08-21T03:03:04;18.20;99.90
45685;DHT22;46836;48.388;16.210;2022-08-21T03:05:33;18.10;99.90
45685;DHT22;46836;48.388;16.210;2022-08-21T03:08:05;18.10;99.90
45685;DHT22;46836;48.388;16.210;2022-08-21T03:10:40;18.10;99.90
45685;DHT22;46836;48.388;16.210;2022-08-21T03:13:07;18.10;99.90
45685;DHT22;46836;48.388;16.210;2022-08-21T03:15:35;18.10;99.90
45685;DHT22;46836;48.388;16.210;2022-08-21T03:18:04;18.10;99.90
45685;DHT22;46836;48.388;16.210;2022-08-21T03:20:33;18.10;99.90
45685;DHT22;46836;48.388;16.210;2022-08-21T03:23:02;18.10;99.90
45685;DHT22;46836;48.388;16.210;2022-08-21T03:25:40;18.10;99.90
45685;DHT22;46836;48.388;16.210;2022-08-21T03:28:11;18.10;99.90
45685;DHT22;46836;48.388;16.210;2022-08-21T03:30:43;18.10;99.90
45685;DHT22;46836;48.388;16.210;2022-08-21T03:33:10;18.10;99.90
45685;DHT22;46836;48.388;16.210;2022-08-21T03:35:43;18.10;99.90
45685;DHT22;46836;48.388;16.210;2022-08-21T03:38:11;18.10;99.90
45685;DHT22;46836;48.388;16.210;2022-08-21T03:40:42;18.10;99.90
45685;DHT22;46836;48.388;16.210;2022-08-21T03:43:10;18.10;99.90
45685;DHT22;46836;48.388;16.210;2022-08-21T03:45:38;18.10;99.90
45685;DHT22;46836;48.388;16.210;2022-08-21T03:48:07;18.10;99.90
45685;DHT22;46836;48.388;16.210;2022-08-21T03:50:39;18.10;99.90
45685;DHT22;46836;48.388;16.210;2022-08-21T03:53:09;18.10;99.90
45685;DHT22;46836;48.388;16.210;2022-08-21T03:55:45;18.10;99.90
45685;DHT22;46836;48.388;16.210;2022-08-21T03:58:16;18.10;99.90
45685;DHT22;46836;48.388;16.210;2022-08-21T04:00:45;18.10;99.90
45685;DHT22;46836;48.388;16.210;2022-08-21T04:03:13;18.10;99.90
45685;DHT22;46836;48.388;16.210;2022-08-21T04:05:40;18.10;99.90
45685;DHT22;46836;48.388;16.210;2022-08-21T04:08:07;18.10;99.90
45685;DHT22;46836;48.388;16.210;2022-08-21T04:10:36;18.10;99.90
45685;DHT22;46836;48.388;16.210;2022-08-21T04:13:06;18.10;99.90
45685;DHT22;46836;48.388;16.210;2022-08-21T04:15:33;18.10;99.90
45685;DHT22;46836;48.388;16.210;2022-08-21T04:18:01;18.10;99.90
45685;DHT22;46836;48.388;16.210;2022-08-21T04:20:28;18.20;99.90
45685;DHT22;46836;48.388;16.210;2022-08-21T04:22:55;18.20;99.90
45685;DHT22;46836;48.388;16.210;2022-08-21T04:25:24;18.20;99.90
45685;DHT22;46836;48.388;16.210;2022-08-21T04:27:52;18.20;99.90
45685;DHT22;46836;48.388;16.210;2022-08-21T04:30:20;18.20;99.90
45685;DHT22;46836;48.388;16.210;2022-08-21T04:32:55;18.20;99.90
45685;DHT22;46836;48.388;16.210;2022-08-21T04:35:26;18.20;99.90
45685;DHT22;46836;48.388;16.210;2022-08-21T04:37:53;18.20;99.90
45685;DHT22;46836;48.388;16.210;2022-08-21T04:40:22;18.30;99.90
45685;DHT22;46836;48.388;16.210;2022-08-21T04:42:56;18.30;99.90
45685;DHT22;46836;48.388;16.210;2022-08-21T04:45:36;18.30;99.90
45685;DHT22;46836;48.388;16.210;2022-08-21T04:48:06;18.30;99.90
45685;DHT22;46836;48.388;16.210;2022-08-21T04:51:01;18.30;99.90
45685;DHT22;46836;48.388;16.210;2022-08-21T04:53:55;18.40;99.90
45685;DHT22;46836;48.388;16.210;2022-08-21T04:56:28;18.30;99.90
45685;DHT22;46836;48.388;16.210;2022-08-21T04:58:58;18.40;99.90
45685;DHT22;46836;48.388;16.210;2022-08-21T05:01:27;18.40;99.90
45685;DHT22;46836;48.388;16.210;2022-08-21T05:03:58;18.40;99.90
45685;DHT22;46836;48.388;16.210;2022-08-21T05:06:28;18.40;99.90
45685;DHT22;46836;48.388;16.210;2022-08-21T05:08:57;18.50;99.90
45685;DHT22;46836;48.388;16.210;2022-08-21T05:11:29;18.60;99.90
45685;DHT22;46836;48.388;16.210;2022-08-21T05:13:57;18.50;99.90
45685;DHT22;46836;48.388;16.210;2022-08-21T05:16:25;18.60;99.90
45685;DHT22;46836;48.388;16.210;2022-08-21T05:19:04;18.60;99.90
45685;DHT22;46836;48.388;16.210;2022-08-21T05:21:33;18.60;99.90
45685;DHT22;46836;48.388;16.210;2022-08-21T05:24:01;18.60;99.90
45685;DHT22;46836;48.388;16.210;2022-08-21T05:26:28;18.60;99.90
45685;DHT22;46836;48.388;16.210;2022-08-21T05:28:56;18.70;99.90
45685;DHT22;46836;48.388;16.210;2022-08-21T05:31:24;18.70;99.90
45685;DHT22;46836;48.388;16.210;2022-08-21T05:33:51;18.70;99.90
45685;DHT22;46836;48.388;16.210;2022-08-21T05:36:22;18.80;99.90
45685;DHT22;46836;48.388;16.210;2022-08-21T05:38:49;18.80;99.90
45685;DHT22;46836;48.388;16.210;2022-08-21T05:41:16;18.80;99.90
45685;DHT22;46836;48.388;16.210;2022-08-21T05:43:43;18.90;99.90
45685;DHT22;46836;48.388;16.210;2022-08-21T05:46:10;18.90;99.90
45685;DHT22;46836;48.388;16.210;2022-08-21T05:48:38;19.00;99.90
45685;DHT22;46836;48.388;16.210;2022-08-21T05:51:08;19.00;99.90
45685;DHT22;46836;48.388;16.210;2022-08-21T05:53:36;19.00;99.90
45685;DHT22;46836;48.388;16.210;2022-08-21T05:56:04;19.10;99.90
45685;DHT22;46836;48.388;16.210;2022-08-21T05:58:33;19.10;99.90
45685;DHT22;46836;48.388;16.210;2022-08-21T06:01:01;19.10;99.90
45685;DHT22;46836;48.388;16.210;2022-08-21T06:03:32;19.10;99.90
45685;DHT22;46836;48.388;16.210;2022-08-21T06:06:00;19.10;99.90
45685;DHT22;46836;48.388;16.210;2022-08-21T06:08:28;19.20;99.90
45685;DHT22;46836;48.388;16.210;2022-08-21T06:10:57;19.10;99.90
45685;DHT22;46836;48.388;16.210;2022-08-21T06:13:25;19.10;99.90
45685;DHT22;46836;48.388;16.210;2022-08-21T06:16:10;19.10;99.90
45685;DHT22;46836;48.388;16.210;2022-08-21T06:18:43;19.20;99.90
45685;DHT22;46836;48.388;16.210;2022-08-21T06:21:12;19.20;99.90
45685;DHT22;46836;48.388;16.210;2022-08-21T06:23:41;19.10;99.90
45685;DHT22;46836;48.388;16.210;2022-08-21T06:26:11;19.10;99.90
45685;DHT22;46836;48.388;16.210;2022-08-21T06:28:40;19.20;99.90
45685;DHT22;46836;48.388;16.210;2022-08-21T06:31:23;19.20;99.90
45685;DHT22;46836;48.388;16.210;2022-08-21T06:33:51;19.20;99.90
45685;DHT22;46836;48.388;16.210;2022-08-21T06:36:19;19.30;99.90
45685;DHT22;46836;48.388;16.210;2022-08-21T06:38:47;19.30;99.90
45685;DHT22;46836;48.388;16.210;2022-08-21T06:41:18;19.30;99.90
45685;DHT22;46836;48.388;16.210;2022-08-21T06:43:53;19.40;99.90
45685;DHT22;46836;48.388;16.210;2022-08-21T06:46:22;19.40;99.90
45685;DHT22;46836;48.388;16.210;2022-08-21T06:48:49;19.40;99.90
45685;DHT22;46836;48.388;16.210;2022-08-21T06:51:17;19.30;99.90
45685;DHT22;46836;48.388;16.210;2022-08-21T06:53:45;19.30;99.90
45685;DHT22;46836;48.388;16.210;2022-08-21T06:56:12;19.40;99.90
45685;DHT22;46836;48.388;16.210;2022-08-21T06:58:39;19.40;99.90
45685;DHT22;46836;48.388;16.210;2022-08-21T07:01:07;19.40;99.90
45685;DHT22;46836;48.388;16.210;2022-08-21T07:03:37;19.40;99.90
45685;DHT22;46836;48.388;16.210;2022-08-21T07:06:06;19.40;99.90
45685;DHT22;46836;48.388;16.210;2022-08-21T07:08:34;19.40;99.90
45685;DHT22;46836;48.388;16.210;2022-08-21T07:11:24;19.40;99.90
45685;DHT22;46836;48.388;16.210;2022-08-21T07:13:52;19.50;99.90
45685;DHT22;46836;48.388;16.210;2022-08-21T07:16:21;19.50;99.90
45685;DHT22;46836;48.388;16.210;2022-08-21T07:18:49;19.50;99.90
45685;DHT22;46836;48.388;16.210;2022-08-21T07:21:16;19.50;99.90
45685;DHT22;46836;48.388;16.210;2022-08-21T07:23:47;19.40;99.90
45685;DHT22;46836;48.388;16.210;2022-08-21T07:26:18;19.40;99.90
45685;DHT22;46836;48.388;16.210;2022-08-21T07:28:48;19.40;99.90
45685;DHT22;46836;48.388;16.210;2022-08-21T07:31:17;19.40;99.90
45685;DHT22;46836;48.388;16.210;2022-08-21T07:33:46;19.40;99.90
45685;DHT22;46836;48.388;16.210;2022-08-21T07:36:13;19.40;99.90
45685;DHT22;46836;48.388;16.210;2022-08-21T07:38:41;19.40;99.90
45685;DHT22;46836;48.388;16.210;2022-08-21T07:41:28;19.40;99.90
45685;DHT22;46836;48.388;16.210;2022-08-21T07:43:56;19.40;99.90
45685;DHT22;46836;48.388;16.210;2022-08-21T07:46:27;19.40;99.90
45685;DHT22;46836;48.388;16.210;2022-08-21T07:48:54;19.40;99.90
45685;DHT22;46836;48.388;16.210;2022-08-21T07:51:25;19.40;99.90
45685;DHT22;46836;48.388;16.210;2022-08-21T07:53:55;19.40;99.90
45685;DHT22;46836;48.388;16.210;2022-08-21T07:56:23;19.40;99.90
45685;DHT22;46836;48.388;16.210;2022-08-21T07:58:50;19.40;99.90
45685;DHT22;46836;48.388;16.210;2022-08-21T08:01:17;19.40;99.90
45685;DHT22;46836;48.388;16.210;2022-08-21T08:03:45;19.40;99.90
45685;DHT22;46836;48.388;16.210;2022-08-21T08:06:12;19.40;99.90
45685;DHT22;46836;48.388;16.210;2022-08-21T08:08:40;19.50;99.90
45685;DHT22;46836;48.388;16.210;2022-08-21T08:11:08;19.50;99.90
45685;DHT22;46836;48.388;16.210;2022-08-21T08:13:43;19.40;99.90
45685;DHT22;46836;48.388;16.210;2022-08-21T08:16:11;19.40;99.90
45685;DHT22;46836;48.388;16.210;2022-08-21T08:18:38;19.40;99.90
45685;DHT22;46836;48.388;16.210;2022-08-21T08:21:05;19.40;99.90
45685;DHT22;46836;48.388;16.210;2022-08-21T08:23:33;19.40;99.90
45685;DHT22;46836;48.388;16.210;2022-08-21T08:26:00;19.40;99.90
45685;DHT22;46836;48.388;16.210;2022-08-21T08:28:30;19.40;99.90
45685;DHT22;46836;48.388;16.210;2022-08-21T08:30:59;19.40;99.90
45685;DHT22;46836;48.388;16.210;2022-08-21T08:33:27;19.40;99.90
45685;DHT22;46836;48.388;16.210;2022-08-21T08:35:54;19.40;99.90
45685;DHT22;46836;48.388;16.210;2022-08-21T08:38:23;19.50;99.90
45685;DHT22;46836;48.388;16.210;2022-08-21T08:41:13;19.50;99.90
45685;DHT22;46836;48.388;16.210;2022-08-21T08:43:44;19.50;99.90
45685;DHT22;46836;48.388;16.210;2022-08-21T08:46:19;19.50;99.90
45685;DHT22;46836;48.388;16.210;2022-08-21T08:49:06;19.50;99.90
45685;DHT22;46836;48.388;16.210;2022-08-21T08:51:47;19.40;99.90
45685;DHT22;46836;48.388;16.210;2022-08-21T08:54:42;19.50;99.90
45685;DHT22;46836;48.388;16.210;2022-08-21T08:57:17;19.50;99.90
45685;DHT22;46836;48.388;16.210;2022-08-21T08:59:48;19.60;99.90
45685;DHT22;46836;48.388;16.210;2022-08-21T09:02:19;19.60;99.90
45685;DHT22;46836;48.388;16.210;2022-08-21T09:04:49;19.50;99.90
45685;DHT22;46836;48.388;16.210;2022-08-21T09:07:35;19.50;99.90
45685;DHT22;46836;48.388;16.210;2022-08-21T09:10:12;19.50;99.90
45685;DHT22;46836;48.388;16.210;2022-08-21T09:12:49;19.40;99.90
45685;DHT22;46836;48.388;16.210;2022-08-21T09:15:32;19.40;99.90
45685;DHT22;46836;48.388;16.210;2022-08-21T09:24:22;19.60;99.90
45685;DHT22;46836;48.388;16.210;2022-08-21T09:27:07;19.70;99.90
45685;DHT22;46836;48.388;16.210;2022-08-21T09:29:37;19.70;99.90
45685;DHT22;46836;48.388;16.210;2022-08-21T09:32:17;19.70;99.90
45685;DHT22;46836;48.388;16.210;2022-08-21T09:35:18;19.90;99.90
45685;DHT22;46836;48.388;16.210;2022-08-21T09:42:57;20.20;99.90
45685;DHT22;46836;48.388;16.210;2022-08-21T09:45:25;20.30;99.90
45685;DHT22;46836;48.388;16.210;2022-08-21T09:47:52;20.30;99.90
45685;DHT22;46836;48.388;16.210;2022-08-21T09:50:26;20.30;99.90
45685;DHT22;46836;48.388;16.210;2022-08-21T09:52:57;20.30;99.90
45685;DHT22;46836;48.388;16.210;2022-08-21T09:55:38;20.30;99.90
45685;DHT22;46836;48.388;16.210;2022-08-21T09:58:32;20.30;99.90
45685;DHT22;46836;48.388;16.210;2022-08-21T10:01:02;20.20;99.90
45685;DHT22;46836;48.388;16.210;2022-08-21T10:03:31;20.10;99.90
45685;DHT22;46836;48.388;16.210;2022-08-21T10:06:02;20.10;99.90
45685;DHT22;46836;48.388;16.210;2022-08-21T10:08:37;20.10;99.90
45685;DHT22;46836;48.388;16.210;2022-08-21T10:11:08;20.00;99.90
45685;DHT22;46836;48.388;16.210;2022-08-21T10:32:46;19.90;99.90
45685;DHT22;46836;48.388;16.210;2022-08-21T10:35:35;20.00;99.90
45685;DHT22;46836;48.388;16.210;2022-08-21T10:47:08;20.00;99.90
45685;DHT22;46836;48.388;16.210;2022-08-21T10:53:51;20.30;99.90
45685;DHT22;46836;48.388;16.210;2022-08-21T10:56:16;20.50;99.90
45685;DHT22;46836;48.388;16.210;2022-08-21T10:58:57;20.60;99.90
45685;DHT22;46836;48.388;16.210;2022-08-21T11:01:50;20.70;99.90
45685;DHT22;46836;48.388;16.210;2022-08-21T11:07:36;20.80;99.90
45685;DHT22;46836;48.388;16.210;2022-08-21T11:10:14;20.90;99.90
45685;DHT22;46836;48.388;16.210;2022-08-21T11:13:03;21.00;99.90
45685;DHT22;46836;48.388;16.210;2022-08-21T11:15:50;21.00;99.90
45685;DHT22;46836;48.388;16.210;2022-08-21T11:18:37;21.20;99.90
45685;DHT22;46836;48.388;16.210;2022-08-21T11:23:50;21.30;99.90
45685;DHT22;46836;48.388;16.210;2022-08-21T11:29:39;21.40;99.90
45685;DHT22;46836;48.388;16.210;2022-08-21T11:35:32;21.20;99.90
45685;DHT22;46836;48.388;16.210;2022-08-21T11:38:18;21.20;99.90
45685;DHT22;46836;48.388;16.210;2022-08-21T11:41:07;21.10;99.90
45685;DHT22;46836;48.388;16.210;2022-08-21T11:43:46;21.00;99.90
45685;DHT22;46836;48.388;16.210;2022-08-21T11:46:31;21.00;99.90
45685;DHT22;46836;48.388;16.210;2022-08-21T11:55:03;20.80;99.90
45685;DHT22;46836;48.388;16.210;2022-08-21T12:00:31;20.60;99.90
45685;DHT22;46836;48.388;16.210;2022-08-21T12:03:12;20.60;99.90
45685;DHT22;46836;48.388;16.210;2022-08-21T12:05:44;20.40;99.90
45685;DHT22;46836;48.388;16.210;2022-08-21T12:08:28;20.40;99.90
45685;DHT22;46836;48.388;16.210;2022-08-21T12:11:05;20.30;99.90
45685;DHT22;46836;48.388;16.210;2022-08-21T12:13:38;20.20;99.90
45685;DHT22;46836;48.388;16.210;2022-08-21T12:16:14;20.20;99.90
45685;DHT22;46836;48.388;16.210;2022-08-21T12:18:43;20.20;99.90
45685;DHT22;46836;48.388;16.210;2022-08-21T12:21:27;20.20;99.90
45685;DHT22;46836;48.388;16.210;2022-08-21T12:24:02;20.20;99.90
45685;DHT22;46836;48.388;16.210;2022-08-21T12:29:23;20.10;99.90
45685;DHT22;46836;48.388;16.210;2022-08-21T12:34:34;20.20;99.90
45685;DHT22;46836;48.388;16.210;2022-08-21T12:37:14;20.20;99.90
45685;DHT22;46836;48.388;16.210;2022-08-21T12:39:46;20.20;99.90
45685;DHT22;46836;48.388;16.210;2022-08-21T12:42:21;20.20;99.90
45685;DHT22;46836;48.388;16.210;2022-08-21T12:44:56;20.30;99.90
45685;DHT22;46836;48.388;16.210;2022-08-21T12:47:56;20.30;99.90
45685;DHT22;46836;48.388;16.210;2022-08-21T12:50:45;20.30;99.90
45685;DHT22;46836;48.388;16.210;2022-08-21T12:55:53;20.40;99.90
45685;DHT22;46836;48.388;16.210;2022-08-21T12:58:26;20.40;99.90
45685;DHT22;46836;48.388;16.210;2022-08-21T13:01:21;20.40;99.90
45685;DHT22;46836;48.388;16.210;2022-08-21T13:03:53;20.50;99.90
45685;DHT22;46836;48.388;16.210;2022-08-21T13:06:42;20.40;99.90
45685;DHT22;46836;48.388;16.210;2022-08-21T13:09:14;20.50;99.90
45685;DHT22;46836;48.388;16.210;2022-08-21T13:11:45;20.40;99.90
45685;DHT22;46836;48.388;16.210;2022-08-21T13:14:28;20.40;99.90
45685;DHT22;46836;48.388;16.210;2022-08-21T13:16:59;20.40;99.90
45685;DHT22;46836;48.388;16.210;2022-08-21T13:19:26;20.50;99.90
45685;DHT22;46836;48.388;16.210;2022-08-21T13:21:53;20.50;99.90
45685;DHT22;46836;48.388;16.210;2022-08-21T13:24:26;20.60;99.90
45685;DHT22;46836;48.388;16.210;2022-08-21T13:27:22;20.50;99.90
45685;DHT22;46836;48.388;16.210;2022-08-21T13:32:34;20.60;99.90
45685;DHT22;46836;48.388;16.210;2022-08-21T13:35:14;20.70;99.90
45685;DHT22;46836;48.388;16.210;2022-08-21T13:37:42;20.80;99.90
45685;DHT22;46836;48.388;16.210;2022-08-21T13:40:15;20.80;99.90
45685;DHT22;46836;48.388;16.210;2022-08-21T13:42:46;20.80;99.90
45685;DHT22;46836;48.388;16.210;2022-08-21T13:45:26;20.80;99.90
45685;DHT22;46836;48.388;16.210;2022-08-21T13:47:54;20.80;99.90
45685;DHT22;46836;48.388;16.210;2022-08-21T13:50:23;20.80;99.90
45685;DHT22;46836;48.388;16.210;2022-08-21T13:53:07;20.90;99.90
45685;DHT22;46836;48.388;16.210;2022-08-21T13:55:46;20.90;99.90
45685;DHT22;46836;48.388;16.210;2022-08-21T13:58:24;20.80;99.90
45685;DHT22;46836;48.388;16.210;2022-08-21T14:00:53;20.80;99.90
45685;DHT22;46836;48.388;16.210;2022-08-21T14:03:44;20.80;99.90
45685;DHT22;46836;48.388;16.210;2022-08-21T14:06:16;20.80;99.90
45685;DHT22;46836;48.388;16.210;2022-08-21T14:08:53;20.80;99.90
45685;DHT22;46836;48.388;16.210;2022-08-21T14:11:22;20.90;99.90
45685;DHT22;46836;48.388;16.210;2022-08-21T14:13:56;20.90;99.90
45685;DHT22;46836;48.388;16.210;2022-08-21T14:16:41;20.90;99.90
45685;DHT22;46836;48.388;16.210;2022-08-21T14:19:09;20.90;99.90
45685;DHT22;46836;48.388;16.210;2022-08-21T14:21:40;20.90;99.90
45685;DHT22;46836;48.388;16.210;2022-08-21T14:24:28;20.90;99.90
45685;DHT22;46836;48.388;16.210;2022-08-21T14:27:06;20.90;99.90
45685;DHT22;46836;48.388;16.210;2022-08-21T14:29:39;20.90;99.90
45685;DHT22;46836;48.388;16.210;2022-08-21T14:32:18;20.90;99.90
45685;DHT22;46836;48.388;16.210;2022-08-21T14:34:52;20.90;99.90
45685;DHT22;46836;48.388;16.210;2022-08-21T14:37:21;20.90;99.90
45685;DHT22;46836;48.388;16.210;2022-08-21T14:39:49;20.90;99.90
45685;DHT22;46836;48.388;16.210;2022-08-21T14:42:16;21.00;99.90
45685;DHT22;46836;48.388;16.210;2022-08-21T14:44:44;21.00;99.90
45685;DHT22;46836;48.388;16.210;2022-08-21T14:47:11;21.00;99.90
45685;DHT22;46836;48.388;16.210;2022-08-21T14:49:38;21.00;99.90
45685;DHT22;46836;48.388;16.210;2022-08-21T14:52:06;21.10;99.90
45685;DHT22;46836;48.388;16.210;2022-08-21T14:54:33;21.10;99.90
45685;DHT22;46836;48.388;16.210;2022-08-21T14:57:05;21.10;99.90
45685;DHT22;46836;48.388;16.210;2022-08-21T14:59:33;21.20;99.90
45685;DHT22;46836;48.388;16.210;2022-08-21T15:02:01;21.20;99.90
45685;DHT22;46836;48.388;16.210;2022-08-21T15:04:30;21.20;99.90
45685;DHT22;46836;48.388;16.210;2022-08-21T15:06:57;21.20;99.90
45685;DHT22;46836;48.388;16.210;2022-08-21T15:09:24;21.20;99.90
45685;DHT22;46836;48.388;16.210;2022-08-21T15:11:53;21.30;99.90
45685;DHT22;46836;48.388;16.210;2022-08-21T15:14:25;21.30;99.90
45685;DHT22;46836;48.388;16.210;2022-08-21T15:16:53;21.30;99.90
45685;DHT22;46836;48.388;16.210;2022-08-21T15:19:20;21.30;99.90
45685;DHT22;46836;48.388;16.210;2022-08-21T15:21:48;21.30;99.90
45685;DHT22;46836;48.388;16.210;2022-08-21T15:24:16;21.30;99.90
45685;DHT22;46836;48.388;16.210;2022-08-21T15:26:43;21.30;99.90
45685;DHT22;46836;48.388;16.210;2022-08-21T15:29:11;21.30;99.90
45685;DHT22;46836;48.388;16.210;2022-08-21T15:31:54;21.30;99.90
45685;DHT22;46836;48.388;16.210;2022-08-21T15:34:24;21.30;99.90
45685;DHT22;46836;48.388;16.210;2022-08-21T15:36:54;21.30;99.90
45685;DHT22;46836;48.388;16.210;2022-08-21T15:39:24;21.30;99.90
45685;DHT22;46836;48.388;16.210;2022-08-21T15:41:58;21.20;99.90
45685;DHT22;46836;48.388;16.210;2022-08-21T15:44:36;21.20;99.90
45685;DHT22;46836;48.388;16.210;2022-08-21T15:47:04;21.10;99.90
45685;DHT22;46836;48.388;16.210;2022-08-21T15:49:31;21.10;99.90
45685;DHT22;46836;48.388;16.210;2022-08-21T15:51:58;21.10;99.90
45685;DHT22;46836;48.388;16.210;2022-08-21T15:54:25;21.10;99.90
45685;DHT22;46836;48.388;16.210;2022-08-21T15:56:52;21.10;99.90
45685;DHT22;46836;48.388;16.210;2022-08-21T15:59:21;21.10;99.90
45685;DHT22;46836;48.388;16.210;2022-08-21T16:01:50;21.10;99.90
45685;DHT22;46836;48.388;16.210;2022-08-21T16:04:27;21.10;99.90
45685;DHT22;46836;48.388;16.210;2022-08-21T16:06:55;21.10;99.90
45685;DHT22;46836;48.388;16.210;2022-08-21T16:09:29;21.10;99.90
45685;DHT22;46836;48.388;16.210;2022-08-21T16:11:58;21.10;99.90
45685;DHT22;46836;48.388;16.210;2022-08-21T16:14:26;21.20;99.90
45685;DHT22;46836;48.388;16.210;2022-08-21T16:16:55;21.20;99.90
45685;DHT22;46836;48.388;16.210;2022-08-21T16:19:22;21.20;99.90
45685;DHT22;46836;48.388;16.210;2022-08-21T16:21:50;21.20;99.90
45685;DHT22;46836;48.388;16.210;2022-08-21T16:24:17;21.20;99.90
45685;DHT22;46836;48.388;16.210;2022-08-21T16:26:44;21.20;99.90
45685;DHT22;46836;48.388;16.210;2022-08-21T16:29:23;21.20;99.90
45685;DHT22;46836;48.388;16.210;2022-08-21T16:31:52;21.20;99.90
45685;DHT22;46836;48.388;16.210;2022-08-21T16:34:19;21.10;99.90
45685;DHT22;46836;48.388;16.210;2022-08-21T16:36:46;21.10;99.90
45685;DHT22;46836;48.388;16.210;2022-08-21T16:39:13;21.10;99.90
45685;DHT22;46836;48.388;16.210;2022-08-21T16:41:40;21.10;99.90
45685;DHT22;46836;48.388;16.210;2022-08-21T16:44:07;21.10;99.90
45685;DHT22;46836;48.388;16.210;2022-08-21T16:46:39;21.10;99.90
45685;DHT22;46836;48.388;16.210;2022-08-21T16:49:06;21.10;99.90
45685;DHT22;46836;48.388;16.210;2022-08-21T16:51:34;21.10;99.90
45685;DHT22;46836;48.388;16.210;2022-08-21T16:54:02;21.10;99.90
45685;DHT22;46836;48.388;16.210;2022-08-21T16:56:29;21.00;99.90
45685;DHT22;46836;48.388;16.210;2022-08-21T16:58:57;21.00;99.90
45685;DHT22;46836;48.388;16.210;2022-08-21T17:01:27;21.00;99.90